Time;durP1;ratioP1;P1;durP2;ratioP2;P2;SDS_P1;SDS_P2;PMS_P1;PMS_P2;Temp;Humidity;BMP_temperature;BMP_pressure;BME280_temperature;BME280_humidity;BME280_pressure;Samples;Min_cycle;Max_cycle;Signal;HPM_P1;HPM_P2
2023/03/29 00:01:16;;;;;;;;;;;12.50;42.20;;;;;;5030432;28;19928;-59
2023/03/29 00:03:44;;;;;;;;;;;12.50;42.30;;;;;;5026241;28;19917;-59
2023/03/29 00:06:13;;;;;;;;;;;12.50;42.40;;;;;;5024676;28;20025;-59
2023/03/29 00:08:40;;;;;;;;;;;12.50;42.60;;;;;;5025278;28;19971;-59
2023/03/29 00:11:06;;;;;;;;;;;12.40;43.20;;;;;;5030675;28;19921;-59
2023/03/29 00:13:31;;;;;;;;;;;12.40;43.50;;;;;;5021133;28;20016;-59
2023/03/29 00:15:57;;;;;;;;;;;12.30;44.10;;;;;;5026662;28;20020;-59
2023/03/29 00:18:22;;;;;;;;;;;12.20;44.60;;;;;;5024266;28;19913;-59
2023/03/29 00:20:54;;;;;;;;;;;12.10;45.20;;;;;;5033462;28;19913;-59
2023/03/29 00:23:21;;;;;;;;;;;12.00;45.50;;;;;;5023520;28;19932;-60
2023/03/29 00:25:47;;;;;;;;;;;11.90;46.20;;;;;;5029847;28;19919;-59
2023/03/29 00:28:13;;;;;;;;;;;11.80;46.50;;;;;;5028958;28;20025;-59
2023/03/29 00:30:39;;;;;;;;;;;11.80;46.70;;;;;;5030810;28;19913;-59
2023/03/29 00:33:06;;;;;;;;;;;11.70;47.70;;;;;;5030905;28;20288;-59
2023/03/29 00:35:31;;;;;;;;;;;11.70;48.50;;;;;;5022255;28;19920;-60
2023/03/29 00:37:57;;;;;;;;;;;11.60;49.60;;;;;;5031635;28;19917;-61
2023/03/29 00:40:22;;;;;;;;;;;11.60;50.40;;;;;;5014907;28;19917;-59
2023/03/29 00:42:47;;;;;;;;;;;11.50;51.40;;;;;;5023386;28;19925;-59
2023/03/29 00:45:17;;;;;;;;;;;11.40;52.30;;;;;;5023539;28;19910;-58
2023/03/29 00:47:46;;;;;;;;;;;11.30;53.30;;;;;;5030477;28;20375;-62
2023/03/29 00:50:21;;;;;;;;;;;11.30;54.00;;;;;;5029758;28;19976;-59
2023/03/29 00:52:55;;;;;;;;;;;11.20;54.60;;;;;;5018076;28;20483;-59
2023/03/29 00:55:22;;;;;;;;;;;11.10;55.00;;;;;;5023124;28;19931;-59
2023/03/29 00:57:51;;;;;;;;;;;11.10;55.50;;;;;;5024294;28;19918;-59
2023/03/29 01:00:19;;;;;;;;;;;11.00;55.80;;;;;;5021593;28;19913;-60
2023/03/29 01:02:49;;;;;;;;;;;11.00;56.20;;;;;;5020289;28;20394;-59
2023/03/29 01:05:21;;;;;;;;;;;11.00;56.40;;;;;;5021564;28;19928;-59
2023/03/29 01:07:52;;;;;;;;;;;10.90;56.50;;;;;;5023978;28;19971;-59
2023/03/29 01:10:22;;;;;;;;;;;10.90;56.70;;;;;;5030576;28;19921;-59
2023/03/29 01:12:50;;;;;;;;;;;10.90;56.90;;;;;;5022546;28;19925;-59
2023/03/29 01:15:18;;;;;;;;;;;10.90;57.20;;;;;;5019950;28;19925;-59
2023/03/29 01:17:48;;;;;;;;;;;10.90;57.20;;;;;;5023584;28;19917;-59
2023/03/29 01:20:19;;;;;;;;;;;10.90;57.30;;;;;;5028801;28;19909;-60
2023/03/29 01:22:51;;;;;;;;;;;11.00;57.40;;;;;;5028529;28;19917;-59
2023/03/29 01:25:31;;;;;;;;;;;11.00;57.50;;;;;;5023804;28;19913;-59
2023/03/29 01:28:02;;;;;;;;;;;11.00;57.50;;;;;;5017073;28;19952;-59
2023/03/29 01:30:37;;;;;;;;;;;11.00;57.60;;;;;;5018616;28;20391;-59
2023/03/29 01:33:10;;;;;;;;;;;11.00;57.70;;;;;;5020759;28;19921;-59
2023/03/29 01:35:48;;;;;;;;;;;11.00;57.80;;;;;;5023905;28;19959;-59
2023/03/29 01:38:17;;;;;;;;;;;11.00;57.90;;;;;;5018686;28;19925;-59
2023/03/29 01:40:42;;;;;;;;;;;11.10;58.00;;;;;;5026093;28;19913;-59
2023/03/29 01:43:17;;;;;;;;;;;11.10;58.00;;;;;;5019547;28;20289;-59
2023/03/29 01:45:46;;;;;;;;;;;11.10;58.00;;;;;;5012118;28;20067;-59
2023/03/29 01:48:11;;;;;;;;;;;11.10;58.10;;;;;;5012046;28;19914;-59
2023/03/29 01:50:40;;;;;;;;;;;11.10;58.10;;;;;;5012042;28;20422;-59
2023/03/29 01:53:09;;;;;;;;;;;11.10;58.20;;;;;;5012218;28;20359;-59
2023/03/29 01:55:37;;;;;;;;;;;11.10;58.30;;;;;;5024293;28;19913;-59
2023/03/29 01:58:04;;;;;;;;;;;11.10;58.30;;;;;;5029595;28;20240;-60
2023/03/29 02:00:30;;;;;;;;;;;11.10;58.60;;;;;;5031687;28;19928;-59
2023/03/29 02:02:59;;;;;;;;;;;11.10;58.40;;;;;;5013810;28;19968;-59
2023/03/29 02:05:25;;;;;;;;;;;11.10;58.40;;;;;;5013871;28;19967;-57
2023/03/29 02:07:51;;;;;;;;;;;11.10;58.40;;;;;;5031409;28;19913;-59
2023/03/29 02:10:17;;;;;;;;;;;11.00;58.40;;;;;;5026990;28;20007;-60
2023/03/29 02:12:43;;;;;;;;;;;11.10;58.50;;;;;;5019267;28;20009;-58
2023/03/29 02:15:17;;;;;;;;;;;11.10;58.70;;;;;;5026636;28;19913;-57
2023/03/29 02:17:43;;;;;;;;;;;11.10;58.80;;;;;;5024645;28;19932;-58
2023/03/29 02:20:13;;;;;;;;;;;11.10;58.80;;;;;;5021779;28;19915;-59
2023/03/29 02:22:45;;;;;;;;;;;11.10;58.90;;;;;;5016135;28;19944;-59
2023/03/29 02:25:11;;;;;;;;;;;11.10;58.70;;;;;;5013931;28;19910;-58
2023/03/29 02:27:37;;;;;;;;;;;11.10;58.90;;;;;;5019482;28;19921;-58
2023/03/29 02:30:04;;;;;;;;;;;11.10;58.80;;;;;;5031055;28;19909;-58
2023/03/29 02:32:42;;;;;;;;;;;11.10;58.70;;;;;;5017027;28;19925;-58
2023/03/29 02:35:12;;;;;;;;;;;11.10;58.50;;;;;;5019194;28;20292;-59
2023/03/29 02:37:41;;;;;;;;;;;11.10;58.50;;;;;;5026430;28;19921;-59
2023/03/29 02:40:06;;;;;;;;;;;11.20;58.70;;;;;;5016928;28;19921;-58
2023/03/29 02:42:33;;;;;;;;;;;11.20;58.50;;;;;;5014153;28;20388;-59
2023/03/29 02:44:59;;;;;;;;;;;11.20;58.80;;;;;;5019814;28;19920;-58
2023/03/29 02:47:30;;;;;;;;;;;11.20;58.90;;;;;;5028840;28;19917;-58
2023/03/29 02:49:56;;;;;;;;;;;11.20;58.90;;;;;;5029211;28;20373;-58
2023/03/29 02:52:24;;;;;;;;;;;11.20;59.00;;;;;;5031416;28;19923;-59
2023/03/29 02:54:51;;;;;;;;;;;11.30;58.80;;;;;;5026419;28;19925;-60
2023/03/29 02:57:16;;;;;;;;;;;11.30;58.90;;;;;;5017932;28;20323;-58
2023/03/29 02:59:43;;;;;;;;;;;11.30;59.00;;;;;;5035145;28;19924;-58
2023/03/29 03:02:10;;;;;;;;;;;11.30;59.00;;;;;;5035044;28;19909;-58
2023/03/29 03:04:36;;;;;;;;;;;11.30;58.90;;;;;;5035013;28;19964;-61
2023/03/29 03:07:03;;;;;;;;;;;11.30;58.90;;;;;;5034573;28;19913;-59
2023/03/29 03:09:29;;;;;;;;;;;11.30;58.70;;;;;;5034829;28;19936;-59
2023/03/29 03:11:54;;;;;;;;;;;11.30;58.60;;;;;;5034829;28;19909;-58
2023/03/29 03:14:21;;;;;;;;;;;11.40;58.60;;;;;;5034716;28;19961;-58
2023/03/29 03:16:47;;;;;;;;;;;11.40;58.50;;;;;;5034594;28;19909;-58
2023/03/29 03:19:13;;;;;;;;;;;11.40;58.30;;;;;;5025545;28;19924;-59
2023/03/29 03:21:38;;;;;;;;;;;11.40;57.90;;;;;;5027053;28;20008;-58
2023/03/29 03:24:05;;;;;;;;;;;11.40;57.90;;;;;;5031729;28;19917;-58
2023/03/29 03:26:30;;;;;;;;;;;11.40;58.10;;;;;;5025839;28;19914;-59
2023/03/29 03:28:56;;;;;;;;;;;11.50;58.20;;;;;;5028638;28;19921;-58
2023/03/29 03:31:21;;;;;;;;;;;11.50;58.20;;;;;;5029555;28;20364;-58
2023/03/29 03:33:47;;;;;;;;;;;11.50;58.00;;;;;;5020485;28;19921;-58
2023/03/29 03:36:12;;;;;;;;;;;11.50;58.00;;;;;;5015608;28;19913;-59
2023/03/29 03:38:38;;;;;;;;;;;11.50;58.10;;;;;;5023263;28;19927;-58
2023/03/29 03:41:04;;;;;;;;;;;11.50;57.90;;;;;;5031617;28;19939;-59
2023/03/29 03:43:29;;;;;;;;;;;11.50;57.80;;;;;;5029674;28;19968;-59
2023/03/29 03:45:55;;;;;;;;;;;11.60;57.70;;;;;;5034326;28;20356;-59
2023/03/29 03:48:21;;;;;;;;;;;11.50;57.70;;;;;;5034372;28;19960;-59
2023/03/29 03:50:48;;;;;;;;;;;11.50;57.50;;;;;;5034310;28;20285;-59
2023/03/29 03:53:14;;;;;;;;;;;11.60;57.60;;;;;;5034195;28;19917;-60
2023/03/29 03:55:39;;;;;;;;;;;11.60;57.60;;;;;;5034232;28;20398;-58
2023/03/29 03:58:06;;;;;;;;;;;11.60;57.80;;;;;;5033690;28;20032;-60
2023/03/29 04:00:32;;;;;;;;;;;11.60;57.60;;;;;;5037475;28;19924;-59
2023/03/29 04:02:58;;;;;;;;;;;11.60;57.80;;;;;;5033169;28;19999;-59
2023/03/29 04:05:23;;;;;;;;;;;11.60;57.60;;;;;;5033762;28;19975;-59
2023/03/29 04:07:48;;;;;;;;;;;11.70;57.80;;;;;;5033000;28;20384;-59
2023/03/29 04:10:14;;;;;;;;;;;11.70;57.80;;;;;;5033725;28;19921;-59
2023/03/29 04:12:40;;;;;;;;;;;11.70;57.60;;;;;;5033793;28;20384;-61
2023/03/29 04:15:06;;;;;;;;;;;11.70;57.70;;;;;;5033960;28;20355;-59
2023/03/29 04:17:31;;;;;;;;;;;11.70;57.70;;;;;;5022865;28;20258;-58
2023/03/29 04:19:57;;;;;;;;;;;11.70;57.90;;;;;;5013783;28;19910;-59
2023/03/29 04:22:24;;;;;;;;;;;11.70;57.80;;;;;;5013634;28;20276;-62
2023/03/29 04:24:49;;;;;;;;;;;11.80;58.00;;;;;;5027209;28;20019;-58
2023/03/29 04:27:15;;;;;;;;;;;11.80;58.20;;;;;;5030961;28;20381;-59
2023/03/29 04:29:43;;;;;;;;;;;11.80;57.90;;;;;;5020041;28;19991;-59
2023/03/29 04:32:09;;;;;;;;;;;11.80;58.10;;;;;;5024298;28;20419;-59
2023/03/29 04:34:34;;;;;;;;;;;11.90;58.30;;;;;;5031151;28;19921;-59
2023/03/29 04:37:00;;;;;;;;;;;11.90;58.00;;;;;;5019170;28;19918;-58
2023/03/29 04:39:32;;;;;;;;;;;11.90;58.00;;;;;;5030532;28;20327;-58
2023/03/29 04:41:58;;;;;;;;;;;11.90;57.80;;;;;;5030508;28;20407;-58
2023/03/29 04:44:25;;;;;;;;;;;11.90;57.40;;;;;;5026097;28;19924;-58
2023/03/29 04:46:51;;;;;;;;;;;11.90;57.60;;;;;;5031076;28;20340;-58
2023/03/29 04:49:16;;;;;;;;;;;11.90;57.80;;;;;;5027030;28;19960;-58
2023/03/29 04:51:42;;;;;;;;;;;12.00;57.80;;;;;;5025231;28;19968;-58
2023/03/29 04:54:08;;;;;;;;;;;12.00;57.80;;;;;;5005759;28;19998;-63
2023/03/29 04:56:33;;;;;;;;;;;12.00;57.70;;;;;;5030823;28;20388;-59
2023/03/29 04:58:59;;;;;;;;;;;12.00;57.60;;;;;;5030349;28;19936;-59
2023/03/29 05:01:24;;;;;;;;;;;12.00;57.50;;;;;;5028826;28;19921;-58
2023/03/29 05:03:49;;;;;;;;;;;12.10;57.80;;;;;;5030453;28;19925;-58
2023/03/29 05:06:15;;;;;;;;;;;12.10;57.80;;;;;;5025708;28;19960;-61
2023/03/29 05:08:41;;;;;;;;;;;12.10;57.70;;;;;;5020033;28;19929;-58
2023/03/29 05:11:08;;;;;;;;;;;12.00;57.10;;;;;;5024652;28;20292;-58
2023/03/29 05:13:34;;;;;;;;;;;12.10;57.10;;;;;;5029718;28;19929;-58
2023/03/29 05:15:59;;;;;;;;;;;12.10;57.10;;;;;;5019798;28;19922;-59
2023/03/29 05:18:25;;;;;;;;;;;12.20;57.50;;;;;;5026394;28;20392;-57
2023/03/29 05:20:51;;;;;;;;;;;12.20;57.60;;;;;;5030330;28;19917;-60
2023/03/29 05:23:17;;;;;;;;;;;12.20;57.10;;;;;;5028357;28;19917;-58
2023/03/29 05:25:43;;;;;;;;;;;12.20;57.10;;;;;;5023958;28;19995;-60
2023/03/29 05:28:09;;;;;;;;;;;12.20;56.70;;;;;;5029427;28;19917;-58
2023/03/29 05:30:34;;;;;;;;;;;12.20;56.40;;;;;;5022503;28;19913;-59
2023/03/29 05:33:04;;;;;;;;;;;12.20;56.40;;;;;;5026484;28;19925;-58
2023/03/29 05:35:30;;;;;;;;;;;12.30;56.00;;;;;;5028208;28;19931;-59
2023/03/29 05:37:55;;;;;;;;;;;12.30;55.70;;;;;;5029827;28;19917;-59
2023/03/29 05:40:28;;;;;;;;;;;12.30;56.10;;;;;;5049255;28;19916;-60
2023/03/29 05:42:53;;;;;;;;;;;12.30;55.70;;;;;;5040372;28;19927;-59
2023/03/29 05:45:19;;;;;;;;;;;12.40;55.60;;;;;;5031386;28;20423;-60
2023/03/29 05:47:45;;;;;;;;;;;12.50;54.90;;;;;;5030532;28;19913;-58
2023/03/29 05:50:10;;;;;;;;;;;12.50;55.00;;;;;;5040550;28;20380;-58
2023/03/29 05:52:36;;;;;;;;;;;12.60;55.00;;;;;;5034871;28;20344;-59
2023/03/29 05:55:03;;;;;;;;;;;12.70;55.10;;;;;;5030155;28;20327;-58
2023/03/29 05:57:28;;;;;;;;;;;12.80;54.90;;;;;;5036096;28;19921;-58
2023/03/29 05:59:55;;;;;;;;;;;12.90;54.80;;;;;;5034421;28;19995;-58
2023/03/29 06:02:20;;;;;;;;;;;12.90;53.90;;;;;;5037335;28;20734;-57
2023/03/29 06:04:46;;;;;;;;;;;13.00;54.10;;;;;;5034632;28;20016;-57
2023/03/29 06:07:11;;;;;;;;;;;13.10;54.00;;;;;;5036600;28;19924;-57
2023/03/29 06:09:38;;;;;;;;;;;13.10;54.00;;;;;;5031326;28;19917;-59
2023/03/29 06:12:04;;;;;;;;;;;13.10;53.60;;;;;;5045812;28;19913;-59
2023/03/29 06:14:30;;;;;;;;;;;13.10;53.00;;;;;;5044918;28;20245;-59
2023/03/29 06:16:55;;;;;;;;;;;13.20;53.30;;;;;;5033861;28;19993;-59
2023/03/29 06:19:21;;;;;;;;;;;13.20;52.70;;;;;;5035912;28;19928;-60
2023/03/29 06:21:47;;;;;;;;;;;13.20;52.10;;;;;;5032367;28;19956;-59
2023/03/29 06:24:12;;;;;;;;;;;13.10;51.50;;;;;;5031929;28;19983;-57
2023/03/29 06:26:38;;;;;;;;;;;13.20;51.80;;;;;;5044060;28;19963;-60
2023/03/29 06:29:03;;;;;;;;;;;13.20;51.50;;;;;;5048013;28;19917;-60
2023/03/29 06:31:30;;;;;;;;;;;13.30;51.40;;;;;;5045865;28;20015;-57
2023/03/29 06:33:57;;;;;;;;;;;13.30;51.80;;;;;;5033767;28;20021;-57
2023/03/29 06:36:22;;;;;;;;;;;13.30;51.40;;;;;;5039981;28;19972;-58
2023/03/29 06:38:48;;;;;;;;;;;13.40;51.40;;;;;;5028745;28;20392;-59
2023/03/29 06:41:13;;;;;;;;;;;13.50;52.00;;;;;;5034606;28;20377;-59
2023/03/29 06:43:39;;;;;;;;;;;13.50;52.20;;;;;;5035385;28;19924;-58
2023/03/29 06:46:10;;;;;;;;;;;13.60;51.70;;;;;;5036698;28;20004;-59
2023/03/29 06:48:36;;;;;;;;;;;13.60;51.60;;;;;;5036397;28;20407;-61
2023/03/29 06:51:01;;;;;;;;;;;13.70;52.00;;;;;;5029702;28;19914;-59
2023/03/29 06:53:27;;;;;;;;;;;13.80;51.50;;;;;;5021485;28;20004;-59
2023/03/29 06:55:52;;;;;;;;;;;13.90;51.20;;;;;;5020448;28;19996;-60
2023/03/29 06:58:18;;;;;;;;;;;14.00;51.20;;;;;;5020665;28;19918;-60
2023/03/29 07:00:44;;;;;;;;;;;14.10;50.60;;;;;;5019635;28;19914;-61
2023/03/29 07:03:13;;;;;;;;;;;14.20;50.60;;;;;;5025625;28;19917;-59
2023/03/29 07:05:40;;;;;;;;;;;14.30;50.80;;;;;;5030323;28;19917;-59
2023/03/29 07:10:36;;;;;;;;;;;14.40;51.10;;;;;;5018994;28;19921;-59
2023/03/29 07:13:02;;;;;;;;;;;14.40;51.30;;;;;;5023995;28;20364;-59
2023/03/29 07:15:28;;;;;;;;;;;14.40;50.80;;;;;;5034121;28;19924;-59
2023/03/29 07:17:54;;;;;;;;;;;14.50;51.10;;;;;;5020089;28;20304;-59
2023/03/29 07:20:21;;;;;;;;;;;14.50;51.00;;;;;;5015497;28;19983;-58
2023/03/29 07:22:47;;;;;;;;;;;14.60;51.10;;;;;;5019020;28;19925;-59
2023/03/29 07:25:15;;;;;;;;;;;14.60;50.80;;;;;;5019604;28;20013;-62
2023/03/29 07:27:41;;;;;;;;;;;14.50;50.50;;;;;;5026890;28;20222;-58
2023/03/29 07:30:11;;;;;;;;;;;14.60;50.60;;;;;;5033258;28;19979;-59
2023/03/29 07:32:37;;;;;;;;;;;14.70;51.20;;;;;;5017325;28;19973;-59
2023/03/29 07:35:07;;;;;;;;;;;14.80;51.50;;;;;;5029078;28;20280;-59
2023/03/29 07:37:34;;;;;;;;;;;14.80;51.30;;;;;;5021057;28;19918;-59
2023/03/29 07:40:00;;;;;;;;;;;14.90;51.50;;;;;;5016945;28;20281;-59
2023/03/29 07:42:26;;;;;;;;;;;14.90;50.80;;;;;;5028157;28;20011;-58
2023/03/29 07:44:55;;;;;;;;;;;14.90;51.10;;;;;;5019829;28;19917;-58
2023/03/29 07:47:20;;;;;;;;;;;15.00;51.30;;;;;;5033001;28;19913;-59
2023/03/29 07:49:46;;;;;;;;;;;15.00;50.30;;;;;;5033287;28;20023;-60
2023/03/29 07:52:11;;;;;;;;;;;15.00;50.30;;;;;;5035092;28;19913;-59
2023/03/29 07:54:37;;;;;;;;;;;15.10;50.90;;;;;;5032240;28;19959;-59
2023/03/29 07:57:02;;;;;;;;;;;15.10;50.60;;;;;;5031452;28;19913;-59
2023/03/29 07:59:28;;;;;;;;;;;15.10;50.40;;;;;;5031926;28;19928;-59
2023/03/29 08:01:54;;;;;;;;;;;15.10;50.40;;;;;;5030535;28;20377;-59
2023/03/29 08:04:20;;;;;;;;;;;15.10;50.40;;;;;;5031625;28;19964;-59
2023/03/29 08:06:45;;;;;;;;;;;15.10;50.40;;;;;;5031433;28;19913;-59
2023/03/29 08:09:11;;;;;;;;;;;15.20;50.40;;;;;;5032008;28;19968;-59
2023/03/29 08:11:38;;;;;;;;;;;15.20;50.20;;;;;;5031818;28;19913;-59
2023/03/29 08:14:04;;;;;;;;;;;15.20;49.80;;;;;;5031462;28;19913;-59
2023/03/29 08:16:30;;;;;;;;;;;15.20;49.90;;;;;;5028397;28;19917;-59
2023/03/29 08:18:56;;;;;;;;;;;15.30;49.90;;;;;;5029921;28;19917;-59
2023/03/29 08:21:21;;;;;;;;;;;15.30;50.20;;;;;;5033958;28;19912;-59
2023/03/29 08:23:47;;;;;;;;;;;15.30;50.20;;;;;;5030049;28;19955;-59
2023/03/29 08:26:14;;;;;;;;;;;15.40;50.10;;;;;;5031247;28;20025;-59
2023/03/29 08:28:40;;;;;;;;;;;15.40;50.20;;;;;;5031530;28;19917;-59
2023/03/29 08:31:06;;;;;;;;;;;15.40;49.40;;;;;;5031105;28;19916;-59
2023/03/29 08:33:31;;;;;;;;;;;15.40;49.30;;;;;;5033581;28;19925;-59
2023/03/29 08:35:57;;;;;;;;;;;15.40;49.50;;;;;;5032715;28;19913;-59
2023/03/29 08:38:22;;;;;;;;;;;15.50;49.80;;;;;;5030415;28;19971;-59
2023/03/29 08:40:48;;;;;;;;;;;15.60;49.40;;;;;;5030750;28;20395;-59
2023/03/29 08:43:19;;;;;;;;;;;15.70;50.00;;;;;;5031041;28;19920;-59
2023/03/29 08:45:52;;;;;;;;;;;15.70;49.50;;;;;;5030603;28;19919;-59
2023/03/29 08:48:27;;;;;;;;;;;15.80;49.20;;;;;;5030402;28;19956;-59
2023/03/29 08:50:54;;;;;;;;;;;15.80;49.50;;;;;;5030732;28;19992;-58
2023/03/29 08:53:23;;;;;;;;;;;15.90;49.30;;;;;;5025577;28;20352;-59
2023/03/29 08:55:51;;;;;;;;;;;16.00;48.50;;;;;;5027005;28;19909;-59
2023/03/29 08:58:19;;;;;;;;;;;16.00;48.40;;;;;;5031681;28;19932;-59
2023/03/29 09:01:11;;;;;;;;;;;15.90;48.10;;;;;;5029057;28;19935;-59
2023/03/29 09:03:39;;;;;;;;;;;16.00;48.20;;;;;;5028592;28;19921;-59
2023/03/29 09:06:06;;;;;;;;;;;16.10;48.10;;;;;;5020239;28;19959;-59
2023/03/29 09:08:36;;;;;;;;;;;16.10;47.70;;;;;;5014567;28;20039;-59
2023/03/29 09:11:20;;;;;;;;;;;16.20;47.70;;;;;;5025680;28;20422;-63
2023/03/29 09:14:02;;;;;;;;;;;16.40;48.30;;;;;;5030333;28;19924;-59
2023/03/29 09:16:39;;;;;;;;;;;16.60;47.40;;;;;;5028446;28;20281;-59
2023/03/29 09:19:17;;;;;;;;;;;16.80;47.40;;;;;;5031511;28;19921;-58
2023/03/29 09:21:58;;;;;;;;;;;16.90;46.60;;;;;;5031253;28;20280;-59
2023/03/29 09:24:31;;;;;;;;;;;17.00;47.20;;;;;;5030952;28;19917;-59
2023/03/29 09:27:20;;;;;;;;;;;17.20;47.20;;;;;;5031358;28;20385;-58
2023/03/29 09:29:55;;;;;;;;;;;17.30;47.10;;;;;;5030454;28;19917;-58
2023/03/29 09:32:22;;;;;;;;;;;17.50;46.50;;;;;;5030037;28;19917;-59
2023/03/29 09:34:58;;;;;;;;;;;17.60;45.60;;;;;;5034364;28;19920;-59
2023/03/29 09:37:31;;;;;;;;;;;17.70;45.70;;;;;;5032749;28;19963;-59
2023/03/29 09:39:57;;;;;;;;;;;17.90;46.20;;;;;;5031414;28;19925;-58
2023/03/29 09:42:22;;;;;;;;;;;18.00;45.70;;;;;;5031162;28;19909;-59
2023/03/29 09:44:53;;;;;;;;;;;18.00;44.80;;;;;;5043143;28;19917;-58
2023/03/29 09:47:22;;;;;;;;;;;18.00;44.60;;;;;;5041876;28;19913;-59
2023/03/29 09:49:49;;;;;;;;;;;17.90;44.30;;;;;;5031263;28;20276;-58
2023/03/29 09:52:16;;;;;;;;;;;17.90;44.90;;;;;;5031100;28;20096;-61
2023/03/29 09:54:41;;;;;;;;;;;17.90;44.60;;;;;;5031245;28;20016;-58
2023/03/29 09:57:15;;;;;;;;;;;18.00;45.00;;;;;;5029558;28;20395;-59
2023/03/29 09:59:40;;;;;;;;;;;18.10;45.20;;;;;;5011210;28;19930;-59
2023/03/29 10:02:07;;;;;;;;;;;18.10;45.00;;;;;;5011348;28;19910;-58
2023/03/29 10:04:32;;;;;;;;;;;18.20;45.50;;;;;;5011421;28;20281;-59
2023/03/29 10:06:58;;;;;;;;;;;18.30;45.40;;;;;;5046687;28;19916;-58
2023/03/29 10:09:25;;;;;;;;;;;18.30;45.30;;;;;;5041605;28;19963;-58
2023/03/29 10:11:53;;;;;;;;;;;18.40;45.50;;;;;;5031125;28;20307;-58
2023/03/29 10:14:27;;;;;;;;;;;18.60;45.60;;;;;;5029653;28;19925;-58
2023/03/29 10:16:54;;;;;;;;;;;18.70;45.50;;;;;;5018141;28;19917;-59
2023/03/29 10:19:22;;;;;;;;;;;18.80;45.30;;;;;;5035391;28;19927;-59
2023/03/29 10:21:48;;;;;;;;;;;18.80;45.10;;;;;;5031073;28;19909;-58
2023/03/29 10:24:21;;;;;;;;;;;18.80;45.00;;;;;;5029287;28;20015;-58
2023/03/29 10:26:48;;;;;;;;;;;18.90;44.50;;;;;;5032468;28;20376;-59
2023/03/29 10:29:14;;;;;;;;;;;19.00;44.40;;;;;;5035146;28;20080;-59
2023/03/29 10:31:41;;;;;;;;;;;19.00;44.20;;;;;;5033799;28;20392;-58
2023/03/29 10:34:09;;;;;;;;;;;19.10;43.60;;;;;;5030711;28;19932;-59
2023/03/29 10:36:35;;;;;;;;;;;19.20;43.40;;;;;;5033333;28;19963;-59
2023/03/29 10:39:02;;;;;;;;;;;19.30;43.60;;;;;;5031593;28;20434;-59
2023/03/29 10:41:31;;;;;;;;;;;19.40;43.00;;;;;;5033109;28;19910;-59
2023/03/29 10:43:57;;;;;;;;;;;19.50;43.50;;;;;;5033593;28;19924;-59
2023/03/29 10:46:30;;;;;;;;;;;19.70;43.60;;;;;;5034246;28;20365;-58
2023/03/29 10:49:03;;;;;;;;;;;19.80;43.50;;;;;;5022522;28;19921;-59
2023/03/29 10:51:31;;;;;;;;;;;19.90;43.50;;;;;;5045089;28;19909;-58
2023/03/29 10:53:57;;;;;;;;;;;20.00;43.70;;;;;;5035422;28;19917;-58
2023/03/29 10:56:28;;;;;;;;;;;20.00;43.30;;;;;;5030049;28;19918;-59
2023/03/29 10:58:59;;;;;;;;;;;19.80;42.20;;;;;;5030196;28;20014;-59
2023/03/29 11:01:25;;;;;;;;;;;19.60;41.90;;;;;;5033982;28;19909;-59
2023/03/29 11:03:50;;;;;;;;;;;19.40;42.00;;;;;;5020002;28;20414;-59
2023/03/29 11:06:25;;;;;;;;;;;19.30;42.40;;;;;;5026133;28;19919;-64
2023/03/29 11:09:15;;;;;;;;;;;19.30;43.00;;;;;;5032794;28;20296;-62
2023/03/29 11:11:50;;;;;;;;;;;19.30;43.60;;;;;;5027960;28;19917;-59
2023/03/29 11:14:33;;;;;;;;;;;19.40;43.50;;;;;;5013897;28;20272;-58
2023/03/29 11:17:05;;;;;;;;;;;19.50;43.80;;;;;;5027697;28;20013;-58
2023/03/29 11:19:42;;;;;;;;;;;19.40;44.00;;;;;;5033811;28;19925;-58
2023/03/29 11:22:08;;;;;;;;;;;19.30;44.40;;;;;;5015875;28;20328;-58
2023/03/29 11:24:52;;;;;;;;;;;19.30;44.30;;;;;;5013973;28;19922;-58
2023/03/29 11:27:22;;;;;;;;;;;19.30;44.30;;;;;;5030293;28;19995;-58
2023/03/29 11:29:47;;;;;;;;;;;19.50;44.60;;;;;;5031739;28;19917;-59
2023/03/29 11:32:16;;;;;;;;;;;19.60;44.80;;;;;;5032300;28;19920;-59
2023/03/29 11:35:02;;;;;;;;;;;19.80;44.80;;;;;;5034848;28;20016;-59
2023/03/29 11:37:32;;;;;;;;;;;20.20;44.90;;;;;;5052986;28;19945;-58
2023/03/29 11:40:17;;;;;;;;;;;20.40;43.90;;;;;;5043495;28;19921;-59
2023/03/29 11:42:46;;;;;;;;;;;20.50;43.40;;;;;;5033026;28;19938;-58
2023/03/29 11:45:13;;;;;;;;;;;20.40;42.90;;;;;;5029125;28;19963;-59
2023/03/29 11:47:40;;;;;;;;;;;20.40;42.60;;;;;;5033064;28;19963;-62
2023/03/29 11:50:31;;;;;;;;;;;20.50;43.00;;;;;;5024647;28;19918;-60
2023/03/29 11:53:15;;;;;;;;;;;20.40;43.90;;;;;;5012743;28;19949;-59
2023/03/29 11:55:41;;;;;;;;;;;20.40;44.10;;;;;;5024401;28;19913;-58
2023/03/29 11:58:14;;;;;;;;;;;20.40;44.50;;;;;;5023154;28;20257;-63
2023/03/29 12:00:48;;;;;;;;;;;20.60;44.00;;;;;;5012769;28;19917;-60
2023/03/29 12:03:27;;;;;;;;;;;20.50;44.20;;;;;;5012839;28;20373;-61
2023/03/29 12:06:01;;;;;;;;;;;20.50;44.60;;;;;;5012585;28;20016;-63
2023/03/29 12:08:36;;;;;;;;;;;20.40;45.30;;;;;;5013166;28;19929;-59
2023/03/29 12:11:21;;;;;;;;;;;20.20;45.80;;;;;;5012768;28;19913;-58
2023/03/29 12:13:54;;;;;;;;;;;19.80;46.10;;;;;;5024220;28;20000;-59
2023/03/29 12:16:25;;;;;;;;;;;19.70;46.90;;;;;;5032139;28;20383;-63
2023/03/29 12:18:53;;;;;;;;;;;19.50;47.90;;;;;;5017982;28;19925;-59
2023/03/29 12:21:20;;;;;;;;;;;19.30;49.20;;;;;;5012597;28;19914;-58
2023/03/29 12:23:46;;;;;;;;;;;19.20;50.10;;;;;;5023718;28;20280;-58
2023/03/29 12:26:31;;;;;;;;;;;19.00;50.90;;;;;;5012553;28;19956;-59
2023/03/29 12:28:57;;;;;;;;;;;18.90;51.40;;;;;;5025642;28;19917;-59
2023/03/29 12:31:35;;;;;;;;;;;18.70;51.90;;;;;;5032190;28;19959;-59
2023/03/29 12:34:05;;;;;;;;;;;18.70;52.40;;;;;;5029295;28;19921;-59
2023/03/29 12:36:51;;;;;;;;;;;18.60;53.30;;;;;;5049500;28;19917;-60
2023/03/29 12:39:18;;;;;;;;;;;18.60;53.90;;;;;;5033370;28;19929;-58
2023/03/29 12:41:48;;;;;;;;;;;18.50;54.90;;;;;;5031147;28;19916;-60
2023/03/29 12:44:14;;;;;;;;;;;18.50;56.50;;;;;;5031325;28;19917;-59
2023/03/29 12:46:40;;;;;;;;;;;18.50;58.40;;;;;;5030890;28;19917;-61
2023/03/29 12:49:10;;;;;;;;;;;18.50;59.80;;;;;;5030842;28;19921;-59
2023/03/29 12:51:39;;;;;;;;;;;18.30;59.90;;;;;;5029426;28;20374;-59
2023/03/29 12:54:07;;;;;;;;;;;18.20;60.20;;;;;;5031506;28;20002;-60
2023/03/29 12:56:40;;;;;;;;;;;18.10;61.50;;;;;;5030479;28;19917;-60
2023/03/29 12:59:16;;;;;;;;;;;18.10;61.60;;;;;;5013933;28;19925;-60
2023/03/29 13:01:55;;;;;;;;;;;18.20;62.20;;;;;;5011523;28;19988;-60
2023/03/29 13:04:21;;;;;;;;;;;18.30;62.40;;;;;;5030302;28;19928;-59
2023/03/29 13:06:46;;;;;;;;;;;18.40;63.10;;;;;;5030010;28;20331;-59
2023/03/29 13:09:20;;;;;;;;;;;18.50;62.60;;;;;;5022685;28;19917;-60
2023/03/29 13:11:51;;;;;;;;;;;18.70;63.30;;;;;;5028492;28;20000;-60
2023/03/29 13:14:18;;;;;;;;;;;18.90;63.20;;;;;;5029566;28;20046;-60
2023/03/29 13:16:43;;;;;;;;;;;19.00;62.60;;;;;;5030141;28;19913;-60
2023/03/29 13:19:20;;;;;;;;;;;19.10;62.40;;;;;;5029704;28;19927;-60
2023/03/29 13:22:05;;;;;;;;;;;19.20;62.20;;;;;;5027625;28;19913;-59
2023/03/29 13:24:42;;;;;;;;;;;19.30;62.40;;;;;;5011057;28;19968;-60
2023/03/29 13:27:11;;;;;;;;;;;19.60;62.80;;;;;;5011477;28;20400;-60
2023/03/29 13:29:49;;;;;;;;;;;19.80;62.70;;;;;;5015237;28;19970;-60
2023/03/29 13:32:27;;;;;;;;;;;20.00;62.90;;;;;;5011026;28;20380;-60
2023/03/29 13:34:58;;;;;;;;;;;20.00;61.60;;;;;;5019808;28;19943;-60
2023/03/29 13:37:26;;;;;;;;;;;20.10;61.30;;;;;;5051181;28;19908;-58
2023/03/29 13:39:52;;;;;;;;;;;20.10;61.70;;;;;;5037799;28;19953;-59
2023/03/29 13:42:33;;;;;;;;;;;20.20;61.70;;;;;;5027499;28;20368;-59
2023/03/29 13:45:12;;;;;;;;;;;20.10;61.20;;;;;;5031768;28;20198;-59
2023/03/29 13:47:40;;;;;;;;;;;20.00;60.90;;;;;;5019723;28;19916;-59
2023/03/29 13:50:11;;;;;;;;;;;19.90;61.30;;;;;;5012333;28;19925;-59
2023/03/29 13:52:39;;;;;;;;;;;19.90;61.40;;;;;;5011527;28;19921;-59
2023/03/29 13:55:08;;;;;;;;;;;19.90;61.80;;;;;;5011353;28;19917;-59
2023/03/29 13:57:37;;;;;;;;;;;19.90;61.80;;;;;;5011141;28;20002;-59
2023/03/29 14:00:15;;;;;;;;;;;20.00;62.20;;;;;;5015736;28;19977;-59
2023/03/29 14:02:48;;;;;;;;;;;19.90;62.00;;;;;;5015418;28;19996;-58
2023/03/29 14:05:16;;;;;;;;;;;20.00;62.40;;;;;;5015298;28;20004;-59
2023/03/29 14:07:45;;;;;;;;;;;20.10;62.10;;;;;;5014996;28;19955;-59
2023/03/29 14:10:13;;;;;;;;;;;20.00;61.80;;;;;;5014775;28;19922;-59
2023/03/29 14:12:38;;;;;;;;;;;20.00;62.40;;;;;;5014447;28;20300;-59
2023/03/29 14:15:04;;;;;;;;;;;20.10;62.80;;;;;;5014853;28;19918;-59
2023/03/29 14:17:30;;;;;;;;;;;20.20;62.80;;;;;;5015654;28;20280;-59
2023/03/29 14:19:57;;;;;;;;;;;20.20;62.60;;;;;;5015028;28;20012;-59
2023/03/29 14:22:22;;;;;;;;;;;20.20;62.70;;;;;;5015346;28;19999;-60
2023/03/29 14:24:52;;;;;;;;;;;20.20;62.30;;;;;;5014682;28;19953;-59
2023/03/29 14:27:18;;;;;;;;;;;20.10;62.20;;;;;;5029614;28;19920;-60